Terminal Aerodrome Forecast
Issued by NWS

Home | Current Version | Previous Version | Text Only | Print | Product List | Glossary On
Versions: 1 2 3 4 5 6 7 8 9 10 11 12
241
FTUS45 KABQ 231726
TAFAEG
TAF
KAEG 231726Z 2318/2418 24008KT P6SM SCT120
     FM240300 29006KT P6SM SKC
     FM241200 VRB04KT P6SM SKC
     FM241700 22007KT P6SM SKC=

USA.gov is the U.S. government's official web portal to all federal, state and local government web resources and services.